Time;durP1;ratioP1;P1;durP2;ratioP2;P2;SDS_P1;SDS_P2;PMS_P1;PMS_P2;Temp;Humidity;BMP_temperature;BMP_pressure;BME280_temperature;BME280_humidity;BME280_pressure;Samples;Min_cycle;Max_cycle;Signal;HPM_P1;HPM_P2
2023/03/10 00:01:45;;;;;;;;;;;;;;;11.47;58.25;93894.53;4212663;28;20285;-60
2023/03/10 00:03:46;;;;;;;;;;;;;;;11.38;58.74;93893.81;4206455;28;19969;-56
2023/03/10 00:05:48;;;;;;;;;;;;;;;11.32;59.35;93898.97;4206803;28;19920;-57
2023/03/10 00:07:49;;;;;;;;;;;;;;;11.33;59.26;93898.78;4203093;28;19943;-58
2023/03/10 00:09:51;;;;;;;;;;;;;;;11.24;59.54;93900.69;4223088;28;19959;-59
2023/03/10 00:11:52;;;;;;;;;;;;;;;11.22;59.75;93902.69;4226767;28;19920;-58
2023/03/10 00:13:54;;;;;;;;;;;;;;;11.20;59.62;93904.66;4199947;28;20397;-57
2023/03/10 00:15:55;;;;;;;;;;;;;;;11.08;60.03;93903.53;4219854;28;20011;-56
2023/03/10 00:17:57;;;;;;;;;;;;;;;10.91;60.46;93905.50;4230986;28;19920;-57
2023/03/10 00:19:58;;;;;;;;;;;;;;;10.75;61.14;93905.66;4229961;28;19923;-56
2023/03/10 00:22:02;;;;;;;;;;;;;;;10.75;61.13;93905.66;4232512;28;19928;-57
2023/03/10 00:24:03;;;;;;;;;;;;;;;10.79;61.15;93905.13;4232673;28;20304;-60
2023/03/10 00:26:04;;;;;;;;;;;;;;;10.92;60.88;93911.56;4226464;28;19924;-59
2023/03/10 00:28:06;;;;;;;;;;;;;;;10.99;60.45;93905.41;4215565;28;19973;-59
2023/03/10 00:30:09;;;;;;;;;;;;;;;11.10;60.01;93906.78;4214633;28;20026;-57
2023/03/10 00:32:10;;;;;;;;;;;;;;;11.23;59.98;93900.88;4215180;28;19920;-57
2023/03/10 00:34:12;;;;;;;;;;;;;;;11.32;59.81;93909.47;4199196;28;19924;-56
2023/03/10 00:36:15;;;;;;;;;;;;;;;11.45;59.20;93907.81;4197088;28;20380;-59
2023/03/10 00:38:16;;;;;;;;;;;;;;;11.55;59.16;93901.44;4208832;28;19943;-59
2023/03/10 00:40:18;;;;;;;;;;;;;;;11.64;59.13;93895.91;4202109;28;19927;-59
2023/03/10 00:42:19;;;;;;;;;;;;;;;11.73;58.99;93898.44;4198643;28;19955;-59
2023/03/10 00:44:21;;;;;;;;;;;;;;;11.45;60.06;93891.25;4202482;28;19920;-54
2023/03/10 00:46:23;;;;;;;;;;;;;;;11.32;60.65;93894.53;4214146;28;19944;-57
2023/03/10 00:48:25;;;;;;;;;;;;;;;11.21;61.25;93887.16;4228829;28;20344;-58
2023/03/10 00:50:26;;;;;;;;;;;;;;;11.13;61.89;93889.88;4208158;28;19924;-58
2023/03/10 00:52:30;;;;;;;;;;;;;;;11.01;62.37;93892.94;4222720;28;19985;-58
2023/03/10 00:54:32;;;;;;;;;;;;;;;10.97;62.66;93889.06;4222124;28;20394;-58
2023/03/10 00:56:33;;;;;;;;;;;;;;;10.99;62.61;93881.84;4214895;28;20362;-56
2023/03/10 00:58:35;;;;;;;;;;;;;;;11.12;62.26;93880.34;4201549;28;19934;-58
2023/03/10 01:00:36;;;;;;;;;;;;;;;11.24;61.71;93879.72;4212262;28;19920;-59
2023/03/10 01:02:38;;;;;;;;;;;;;;;11.21;61.77;93884.53;4212855;28;19925;-55
2023/03/10 01:04:39;;;;;;;;;;;;;;;10.95;62.93;93884.97;4216242;28;19920;-56
2023/03/10 01:06:43;;;;;;;;;;;;;;;10.97;62.81;93888.22;4216285;28;19999;-58
2023/03/10 01:08:44;;;;;;;;;;;;;;;11.12;62.55;93889.06;4219497;28;19994;-58
2023/03/10 01:10:46;;;;;;;;;;;;;;;11.27;61.99;93892.47;4219952;28;20086;-58
2023/03/10 01:12:47;;;;;;;;;;;;;;;11.39;61.30;93898.03;4219345;28;19928;-59
2023/03/10 01:14:49;;;;;;;;;;;;;;;11.48;61.16;93890.88;4198629;28;19920;-57
2023/03/10 01:16:50;;;;;;;;;;;;;;;11.57;60.64;93892.41;4203724;28;19919;-60
2023/03/10 01:18:52;;;;;;;;;;;;;;;11.64;60.33;93892.50;4214770;28;19970;-58
2023/03/10 01:20:53;;;;;;;;;;;;;;;11.71;59.91;93880.25;4213918;28;19963;-56
2023/03/10 01:22:55;;;;;;;;;;;;;;;11.74;59.81;93881.69;4226594;28;19923;-58
2023/03/10 01:24:56;;;;;;;;;;;;;;;11.78;59.57;93883.75;4230864;28;19919;-57
2023/03/10 01:26:58;;;;;;;;;;;;;;;11.83;59.53;93881.41;4231289;28;19962;-58
2023/03/10 01:28:59;;;;;;;;;;;;;;;11.85;59.47;93881.19;4230933;28;20393;-59
2023/03/10 01:31:01;;;;;;;;;;;;;;;11.85;59.58;93871.53;4230461;28;19919;-58
2023/03/10 01:33:02;;;;;;;;;;;;;;;11.87;59.46;93879.19;4214204;28;19928;-59
2023/03/10 01:35:04;;;;;;;;;;;;;;;11.90;59.33;93878.06;4213085;28;19927;-57
2023/03/10 01:37:06;;;;;;;;;;;;;;;11.91;59.27;93877.84;4213691;28;19920;-56
2023/03/10 01:39:07;;;;;;;;;;;;;;;11.89;59.23;93882.47;4219385;28;20002;-58
2023/03/10 01:41:09;;;;;;;;;;;;;;;11.89;58.96;93879.84;4231169;28;20254;-60
2023/03/10 01:43:15;;;;;;;;;;;;;;;11.87;59.09;93877.41;4230931;28;19920;-57
2023/03/10 01:45:16;;;;;;;;;;;;;;;11.87;58.98;93882.66;4218237;28;19962;-58
2023/03/10 01:47:18;;;;;;;;;;;;;;;11.86;59.23;93885.44;4214061;28;19920;-58
2023/03/10 01:49:33;;;;;;;;;;;;;;;11.80;59.41;93889.63;4223501;28;20319;-56
2023/03/10 01:51:35;;;;;;;;;;;;;;;11.75;59.53;93892.00;4228627;28;19932;-54
2023/03/10 01:53:36;;;;;;;;;;;;;;;11.75;59.31;93889.38;4212708;28;19987;-57
2023/03/10 01:55:39;;;;;;;;;;;;;;;11.76;59.66;93900.69;4231162;28;19920;-58
2023/03/10 01:57:50;;;;;;;;;;;;;;;11.78;59.34;93898.69;4212733;28;20424;-59
2023/03/10 01:59:51;;;;;;;;;;;;;;;11.72;59.68;93894.16;4179176;28;19963;-57
2023/03/10 02:01:53;;;;;;;;;;;;;;;11.71;59.62;93898.63;4211626;28;19944;-56
2023/03/10 02:04:02;;;;;;;;;;;;;;;11.68;59.51;93897.19;4202978;28;20054;-57
2023/03/10 02:06:05;;;;;;;;;;;;;;;11.68;59.47;93906.88;4216212;28;19976;-57
2023/03/10 02:08:07;;;;;;;;;;;;;;;11.72;59.38;93900.22;4183967;28;20007;-61
2023/03/10 02:10:10;;;;;;;;;;;;;;;11.73;59.55;93894.00;4209512;28;20011;-59
2023/03/10 02:12:12;;;;;;;;;;;;;;;11.72;59.45;93894.16;4209514;28;19924;-58
2023/03/10 02:14:14;;;;;;;;;;;;;;;11.71;59.38;93893.38;4226683;28;20361;-58
2023/03/10 02:16:15;;;;;;;;;;;;;;;11.71;59.59;93895.19;4179700;28;20402;-60
2023/03/10 02:18:17;;;;;;;;;;;;;;;11.69;59.38;93890.94;4185690;28;19920;-59
2023/03/10 02:20:40;;;;;;;;;;;;;;;11.66;59.80;93896.56;4203106;28;19927;-57
2023/03/10 02:22:41;;;;;;;;;;;;;;;11.64;59.85;93884.63;4193631;28;19927;-58
2023/03/10 02:24:49;;;;;;;;;;;;;;;11.64;59.79;93897.75;4185130;28;19921;-58
2023/03/10 02:26:59;;;;;;;;;;;;;;;11.59;59.83;93892.22;4205170;28;19999;-59
2023/03/10 02:29:01;;;;;;;;;;;;;;;11.62;59.99;93902.34;4212794;28;20354;-59
2023/03/10 02:31:03;;;;;;;;;;;;;;;11.63;59.78;93898.72;4180816;28;20322;-58
2023/03/10 02:33:24;;;;;;;;;;;;;;;11.63;60.01;93899.53;4198810;28;20282;-61
2023/03/10 02:35:26;;;;;;;;;;;;;;;11.62;59.97;93897.13;4198433;28;20008;-59
2023/03/10 02:37:29;;;;;;;;;;;;;;;11.61;60.05;93887.59;4203496;28;19952;-59
2023/03/10 02:39:30;;;;;;;;;;;;;;;11.63;60.04;93889.03;4205033;28;20343;-58
2023/03/10 02:41:35;;;;;;;;;;;;;;;11.62;60.25;93889.25;4197196;28;19920;-59
2023/03/10 02:43:37;;;;;;;;;;;;;;;11.66;60.03;93890.50;4197857;28;19919;-60
2023/03/10 02:45:39;;;;;;;;;;;;;;;11.69;59.88;93887.50;4203972;28;19924;-58
2023/03/10 02:47:41;;;;;;;;;;;;;;;11.67;59.89;93885.03;4207805;28;19969;-58
2023/03/10 02:49:42;;;;;;;;;;;;;;;11.70;59.80;93881.22;4213196;28;19920;-58
2023/03/10 02:51:45;;;;;;;;;;;;;;;11.68;59.92;93880.63;4196707;28;20329;-57
2023/03/10 02:53:46;;;;;;;;;;;;;;;11.69;59.85;93887.50;4197950;28;19921;-57
2023/03/10 02:55:48;;;;;;;;;;;;;;;11.68;60.13;93889.31;4197671;28;19931;-60
2023/03/10 02:57:49;;;;;;;;;;;;;;;11.67;59.96;93884.25;4198361;28;19931;-59
2023/03/10 02:59:51;;;;;;;;;;;;;;;11.64;60.14;93889.88;4222680;28;19924;-57
2023/03/10 03:01:52;;;;;;;;;;;;;;;11.60;60.36;93880.75;4210135;28;19967;-55
2023/03/10 03:03:54;;;;;;;;;;;;;;;11.51;60.55;93890.53;4224081;28;19920;-54
2023/03/10 03:05:55;;;;;;;;;;;;;;;11.53;60.74;93891.16;4195632;28;19924;-58
2023/03/10 03:07:57;;;;;;;;;;;;;;;11.57;60.56;93891.59;4213413;28;19924;-60
2023/03/10 03:09:58;;;;;;;;;;;;;;;11.58;60.59;93893.22;4212305;28;19955;-59
2023/03/10 03:12:00;;;;;;;;;;;;;;;11.59;60.35;93890.41;4213988;28;19938;-60
2023/03/10 03:14:02;;;;;;;;;;;;;;;11.63;60.54;93891.66;4201989;28;19924;-56
2023/03/10 03:16:07;;;;;;;;;;;;;;;11.67;60.50;93889.50;4211911;28;20035;-58
2023/03/10 03:18:09;;;;;;;;;;;;;;;11.70;60.40;93883.84;4225989;28;20369;-56
2023/03/10 03:20:12;;;;;;;;;;;;;;;11.69;60.42;93888.31;4227106;28;19950;-56
2023/03/10 03:22:14;;;;;;;;;;;;;;;11.71;60.31;93887.31;4229253;28;19939;-57
2023/03/10 03:24:16;;;;;;;;;;;;;;;11.73;60.34;93887.94;4229377;28;20393;-58
2023/03/10 03:26:19;;;;;;;;;;;;;;;11.75;60.29;93884.13;4214947;28;19965;-63
2023/03/10 03:28:21;;;;;;;;;;;;;;;11.77;60.27;93868.22;4203924;28;19919;-58
2023/03/10 03:30:24;;;;;;;;;;;;;;;11.78;59.87;93883.75;4227977;28;19930;-59
2023/03/10 03:32:25;;;;;;;;;;;;;;;11.78;60.13;93865.38;4227998;28;19928;-57
2023/03/10 03:34:27;;;;;;;;;;;;;;;11.80;59.96;93871.25;4220577;28;19976;-59
2023/03/10 03:36:29;;;;;;;;;;;;;;;11.79;60.35;93872.28;4207610;28;20407;-59
2023/03/10 03:38:31;;;;;;;;;;;;;;;11.76;60.29;93872.63;4209297;28;19920;-60
2023/03/10 03:40:33;;;;;;;;;;;;;;;11.74;60.26;93873.81;4209909;28;19932;-59
2023/03/10 03:42:35;;;;;;;;;;;;;;;11.75;60.28;93872.81;4200195;28;19924;-57
2023/03/10 03:44:36;;;;;;;;;;;;;;;11.74;60.36;93874.63;4206001;28;19973;-56
2023/03/10 03:46:38;;;;;;;;;;;;;;;11.73;60.58;93882.69;4212479;28;19924;-57
2023/03/10 03:48:39;;;;;;;;;;;;;;;11.72;60.45;93888.94;4198070;28;19920;-59
2023/03/10 03:50:41;;;;;;;;;;;;;;;11.72;60.72;93889.72;4195545;28;19921;-55
2023/03/10 03:52:42;;;;;;;;;;;;;;;11.73;60.59;93883.50;4209940;28;20374;-56
2023/03/10 03:54:44;;;;;;;;;;;;;;;11.75;60.53;93880.69;4202150;28;19952;-59
2023/03/10 03:56:45;;;;;;;;;;;;;;;11.75;60.60;93875.44;4215043;28;20277;-58
2023/03/10 03:58:47;;;;;;;;;;;;;;;11.72;60.50;93876.63;4206931;28;19921;-56
2023/03/10 04:00:48;;;;;;;;;;;;;;;11.73;60.87;93888.75;4191993;28;19967;-56
2023/03/10 04:02:52;;;;;;;;;;;;;;;11.73;60.59;93891.38;4202350;28;19921;-56
2023/03/10 04:04:53;;;;;;;;;;;;;;;11.78;60.44;93888.19;4207959;28;19966;-58
2023/03/10 04:06:55;;;;;;;;;;;;;;;11.80;60.25;93888.81;4209839;28;19993;-56
2023/03/10 04:08:57;;;;;;;;;;;;;;;11.80;60.22;93886.19;4215287;28;19920;-56
2023/03/10 04:10:58;;;;;;;;;;;;;;;11.77;60.70;93887.38;4223899;28;19946;-59
2023/03/10 04:13:00;;;;;;;;;;;;;;;11.77;60.82;93882.13;4214845;28;19974;-58
2023/03/10 04:15:01;;;;;;;;;;;;;;;11.77;60.83;93886.56;4220706;28;19919;-57
2023/03/10 04:17:03;;;;;;;;;;;;;;;11.78;60.75;93875.88;4230973;28;19920;-56
2023/03/10 04:19:06;;;;;;;;;;;;;;;11.77;60.62;93874.25;4231113;28;19919;-57
2023/03/10 04:21:08;;;;;;;;;;;;;;;11.80;60.81;93873.06;4202604;28;19919;-55
2023/03/10 04:23:09;;;;;;;;;;;;;;;11.81;60.44;93870.28;4230966;28;19919;-59
2023/03/10 04:25:11;;;;;;;;;;;;;;;11.80;60.42;93871.25;4231043;28;20034;-55
2023/03/10 04:27:12;;;;;;;;;;;;;;;11.78;60.63;93875.88;4229869;28;19923;-60
2023/03/10 04:29:14;;;;;;;;;;;;;;;11.74;60.77;93874.63;4231396;28;20386;-57
2023/03/10 04:31:16;;;;;;;;;;;;;;;11.74;60.76;93879.88;4191261;28;1149088;-58
2023/03/10 04:33:18;;;;;;;;;;;;;;;11.75;60.56;93872.81;4232057;28;19923;-58
2023/03/10 04:35:19;;;;;;;;;;;;;;;11.76;60.56;93869.19;4216891;28;19920;-58
2023/03/10 04:37:21;;;;;;;;;;;;;;;11.80;60.53;93862.56;4226991;28;19920;-57
2023/03/10 04:39:22;;;;;;;;;;;;;;;11.80;60.72;93868.63;4223218;28;19920;-59
2023/03/10 04:41:24;;;;;;;;;;;;;;;11.81;60.33;93865.03;4220067;28;20296;-60
2023/03/10 04:43:25;;;;;;;;;;;;;;;11.81;60.73;93854.53;4214580;28;19958;-60
2023/03/10 04:45:27;;;;;;;;;;;;;;;11.86;60.53;93856.59;4204003;28;19919;-58
2023/03/10 04:47:28;;;;;;;;;;;;;;;11.86;60.06;93857.38;4215792;28;19967;-57
2023/03/10 04:49:30;;;;;;;;;;;;;;;11.82;60.12;93856.13;4204528;28;19943;-56
2023/03/10 04:51:31;;;;;;;;;;;;;;;11.81;60.75;93851.09;4215146;28;19920;-58
2023/03/10 04:53:33;;;;;;;;;;;;;;;11.80;60.54;93845.00;4231465;28;19924;-55
2023/03/10 04:55:34;;;;;;;;;;;;;;;11.83;60.60;93847.28;4231851;28;19926;-57
2023/03/10 04:57:36;;;;;;;;;;;;;;;11.81;60.79;93844.03;4231830;28;19923;-58
2023/03/10 04:59:37;;;;;;;;;;;;;;;11.80;60.61;93846.84;4202323;28;20309;-59
2023/03/10 05:01:39;;;;;;;;;;;;;;;11.80;60.62;93845.00;4208881;28;19959;-59
2023/03/10 05:03:40;;;;;;;;;;;;;;;11.82;60.50;93840.38;4206153;28;20362;-57
2023/03/10 05:05:42;;;;;;;;;;;;;;;11.76;61.02;93828.00;4213639;28;20456;-60
2023/03/10 05:07:44;;;;;;;;;;;;;;;11.63;61.10;93826.06;4227855;28;19928;-60
2023/03/10 05:09:47;;;;;;;;;;;;;;;11.61;61.06;93820.19;4218304;28;19920;-58
2023/03/10 05:11:48;;;;;;;;;;;;;;;11.60;61.23;93821.22;4205553;28;19977;-61
2023/03/10 05:13:50;;;;;;;;;;;;;;;11.60;61.40;93830.91;4224396;28;20399;-61
2023/03/10 05:15:52;;;;;;;;;;;;;;;11.44;61.93;93814.41;4231536;28;19920;-60
2023/03/10 05:17:54;;;;;;;;;;;;;;;11.27;62.58;93823.47;4228607;28;19920;-60
2023/03/10 05:19:58;;;;;;;;;;;;;;;11.28;62.82;93822.50;4207874;28;19924;-58
2023/03/10 05:22:00;;;;;;;;;;;;;;;11.36;62.65;93816.34;4199419;28;19978;-58
2023/03/10 05:24:02;;;;;;;;;;;;;;;11.46;62.29;93816.81;4199776;28;19920;-59
2023/03/10 05:26:04;;;;;;;;;;;;;;;11.56;61.85;93822.59;4215559;28;19920;-60
2023/03/10 05:28:05;;;;;;;;;;;;;;;11.58;61.73;93817.97;4215236;28;19920;-58
2023/03/10 05:30:07;;;;;;;;;;;;;;;11.60;61.68;93815.16;4204040;28;19969;-61
2023/03/10 05:32:09;;;;;;;;;;;;;;;11.59;61.90;93814.31;4198987;28;19921;-60
2023/03/10 05:34:11;;;;;;;;;;;;;;;11.59;62.01;93814.31;4202804;28;19970;-62
2023/03/10 05:36:13;;;;;;;;;;;;;;;11.66;61.82;93809.97;4214386;28;20477;-60
2023/03/10 05:38:15;;;;;;;;;;;;;;;11.74;61.59;93811.66;4214599;28;19920;-58
2023/03/10 05:40:20;;;;;;;;;;;;;;;11.78;61.32;93806.84;4202465;28;19978;-61
2023/03/10 05:42:21;;;;;;;;;;;;;;;11.83;61.29;93810.53;4214960;28;19942;-59
2023/03/10 05:44:23;;;;;;;;;;;;;;;11.88;61.14;93810.81;4210473;28;20297;-58
2023/03/10 05:46:24;;;;;;;;;;;;;;;11.93;60.89;93807.63;4200146;28;19928;-58
2023/03/10 05:48:26;;;;;;;;;;;;;;;11.90;61.20;93804.56;4212173;28;19932;-61
2023/03/10 05:50:27;;;;;;;;;;;;;;;11.91;61.28;93806.19;4229041;28;19927;-59
2023/03/10 05:52:29;;;;;;;;;;;;;;;11.92;61.19;93797.31;4231119;28;19920;-59
2023/03/10 05:54:31;;;;;;;;;;;;;;;11.98;61.26;93801.78;4231149;28;19981;-60
2023/03/10 05:56:32;;;;;;;;;;;;;;;12.03;60.91;93799.44;4230152;28;19959;-59
2023/03/10 05:58:34;;;;;;;;;;;;;;;12.08;60.86;93803.09;4230657;28;19924;-59
2023/03/10 06:00:35;;;;;;;;;;;;;;;12.11;60.47;93804.53;4216551;28;20022;-61
2023/03/10 06:02:38;;;;;;;;;;;;;;;12.09;60.79;93803.91;4208633;28;20438;-60
2023/03/10 06:04:39;;;;;;;;;;;;;;;12.03;60.54;93794.97;4224839;28;19926;-58
2023/03/10 06:06:41;;;;;;;;;;;;;;;11.95;60.77;93810.88;4217707;28;19920;-60
2023/03/10 06:08:42;;;;;;;;;;;;;;;11.97;61.08;93806.25;4210734;28;19920;-62
2023/03/10 06:10:44;;;;;;;;;;;;;;;11.85;60.91;93819.03;4214269;28;20487;-54
2023/03/10 06:12:45;;;;;;;;;;;;;;;11.77;61.06;93813.91;4214487;28;19920;-56
2023/03/10 06:14:47;;;;;;;;;;;;;;;11.75;61.45;93813.28;4217265;28;20589;-54
2023/03/10 06:16:50;;;;;;;;;;;;;;;11.77;61.33;93811.28;4230923;28;19927;-54
2023/03/10 06:18:53;;;;;;;;;;;;;;;11.83;61.49;93810.53;4230908;28;20024;-55
2023/03/10 06:20:55;;;;;;;;;;;;;;;11.86;61.36;93823.28;4214216;28;19920;-57
2023/03/10 06:22:56;;;;;;;;;;;;;;;11.88;61.03;93817.88;4208903;28;19925;-57
2023/03/10 06:24:58;;;;;;;;;;;;;;;11.92;60.86;93811.25;4213552;28;20281;-56
2023/03/10 06:26:59;;;;;;;;;;;;;;;11.96;60.89;93812.50;4217986;28;19966;-54
2023/03/10 06:29:01;;;;;;;;;;;;;;;12.00;60.94;93823.41;4199334;28;19920;-55
2023/03/10 06:31:04;;;;;;;;;;;;;;;12.09;61.01;93830.97;4202086;28;19931;-56
2023/03/10 06:33:05;;;;;;;;;;;;;;;12.13;61.51;93826.19;4205737;28;20011;-54
2023/03/10 06:35:07;;;;;;;;;;;;;;;12.01;60.71;93814.56;4207467;28;19932;-51
2023/03/10 06:37:08;;;;;;;;;;;;;;;11.94;60.71;93811.88;4227764;28;19920;-59
2023/03/10 06:39:10;;;;;;;;;;;;;;;11.92;61.06;93813.06;4230573;28;20297;-52
2023/03/10 06:41:12;;;;;;;;;;;;;;;11.95;60.92;93813.47;4230041;28;20270;-56
2023/03/10 06:43:13;;;;;;;;;;;;;;;12.01;60.79;93817.19;4230183;28;19923;-54
2023/03/10 06:45:15;;;;;;;;;;;;;;;12.08;60.84;93815.41;4219369;28;20422;-56
2023/03/10 06:47:16;;;;;;;;;;;;;;;12.11;60.56;93820.31;4229951;28;19972;-57
2023/03/10 06:49:18;;;;;;;;;;;;;;;12.17;60.36;93827.38;4229621;28;19920;-54
2023/03/10 06:51:20;;;;;;;;;;;;;;;12.25;60.35;93819.38;4228470;28;19973;-56
2023/03/10 06:53:21;;;;;;;;;;;;;;;12.32;59.88;93818.63;4228202;28;20326;-57
2023/03/10 06:55:23;;;;;;;;;;;;;;;12.38;59.60;93818.66;4229148;28;19968;-54
2023/03/10 06:57:24;;;;;;;;;;;;;;;12.38;59.74;93818.66;4229665;28;19920;-54
2023/03/10 06:59:26;;;;;;;;;;;;;;;12.42;59.53;93830.41;4229976;28;19976;-61
2023/03/10 07:01:29;;;;;;;;;;;;;;;12.45;59.55;93823.97;4227659;28;20476;-57
2023/03/10 07:03:30;;;;;;;;;;;;;;;12.53;59.75;93817.75;4228643;28;19969;-57
2023/03/10 07:05:32;;;;;;;;;;;;;;;12.54;59.06;93817.56;4227847;28;19919;-56
2023/03/10 07:07:33;;;;;;;;;;;;;;;12.56;58.94;93823.44;4228579;28;19942;-55
2023/03/10 07:09:35;;;;;;;;;;;;;;;12.53;59.30;93817.75;4212312;28;19978;-53
2023/03/10 07:11:36;;;;;;;;;;;;;;;12.53;59.53;93812.50;4205267;28;19924;-53
2023/03/10 07:13:38;;;;;;;;;;;;;;;12.56;59.62;93807.69;4216653;28;19920;-55
2023/03/10 07:15:40;;;;;;;;;;;;;;;12.65;59.35;93808.34;4216329;28;20369;-56
2023/03/10 07:17:41;;;;;;;;;;;;;;;12.73;58.98;93795.03;4205604;28;19928;-55
2023/03/10 07:19:43;;;;;;;;;;;;;;;12.77;58.82;93795.47;4215077;28;19963;-58
2023/03/10 07:21:44;;;;;;;;;;;;;;;12.53;59.38;93800.16;4210113;28;20366;-53
2023/03/10 07:23:46;;;;;;;;;;;;;;;12.47;59.50;93811.44;4211466;28;19920;-57
2023/03/10 07:25:51;;;;;;;;;;;;;;;12.53;59.55;93805.44;4221204;28;19926;-56
2023/03/10 07:27:53;;;;;;;;;;;;;;;12.52;59.13;93793.31;4203116;28;19927;-57
2023/03/10 07:29:54;;;;;;;;;;;;;;;12.17;60.19;93793.25;4201712;28;19935;-58
2023/03/10 07:31:56;;;;;;;;;;;;;;;12.27;60.41;93800.81;4202602;28;19927;-57
2023/03/10 07:33:57;;;;;;;;;;;;;;;12.41;60.19;93805.16;4218355;28;20637;-56
2023/03/10 07:36:03;;;;;;;;;;;;;;;12.58;60.00;93802.22;4193765;28;19920;-56
2023/03/10 07:38:04;;;;;;;;;;;;;;;12.74;59.25;93796.66;4202773;28;20358;-56
2023/03/10 07:40:06;;;;;;;;;;;;;;;12.68;59.50;93795.59;4184586;28;19921;-55
2023/03/10 07:42:08;;;;;;;;;;;;;;;12.82;59.09;93790.41;4203475;28;19920;-55
2023/03/10 07:44:09;;;;;;;;;;;;;;;12.94;58.35;93785.44;4205246;28;19920;-54
2023/03/10 07:46:12;;;;;;;;;;;;;;;12.85;58.40;93776.91;4215076;28;19923;-54
2023/03/10 07:48:14;;;;;;;;;;;;;;;12.95;58.58;93780.00;4206016;28;19921;-56
2023/03/10 07:50:16;;;;;;;;;;;;;;;13.09;58.16;93778.22;4203880;28;19920;-56
2023/03/10 07:52:18;;;;;;;;;;;;;;;12.88;58.69;93766.81;4209298;28;20012;-55
2023/03/10 07:54:19;;;;;;;;;;;;;;;12.62;59.72;93759.59;4201174;28;19920;-54
2023/03/10 07:56:21;;;;;;;;;;;;;;;12.55;59.74;93769.28;4204862;28;19920;-58
2023/03/10 07:58:23;;;;;;;;;;;;;;;12.58;59.44;93758.34;4201054;28;20007;-56
2023/03/10 08:00:25;;;;;;;;;;;;;;;12.75;59.34;93758.84;4200423;28;20003;-58
2023/03/10 08:02:26;;;;;;;;;;;;;;;12.95;58.88;93742.34;4198358;28;19925;-55
2023/03/10 08:04:28;;;;;;;;;;;;;;;13.06;58.38;93747.88;4205172;28;19960;-56
2023/03/10 08:06:31;;;;;;;;;;;;;;;13.15;58.06;93751.13;4202793;28;19924;-57
2023/03/10 08:08:33;;;;;;;;;;;;;;;13.27;57.95;93744.28;4208737;28;19935;-53
2023/03/10 08:10:34;;;;;;;;;;;;;;;13.42;58.05;93738.88;4218054;28;19931;-53
2023/03/10 08:12:36;;;;;;;;;;;;;;;13.50;57.82;93732.63;4225422;28;19923;-58
2023/03/10 08:14:38;;;;;;;;;;;;;;;13.55;57.26;93732.84;4219432;28;19920;-60
2023/03/10 08:16:40;;;;;;;;;;;;;;;13.52;57.23;93731.41;4222114;28;19941;-59
2023/03/10 08:18:42;;;;;;;;;;;;;;;13.55;57.01;93726.75;4222632;28;19979;-58
2023/03/10 08:20:43;;;;;;;;;;;;;;;13.54;57.28;93723.31;4202471;28;19953;-60
2023/03/10 08:22:45;;;;;;;;;;;;;;;13.57;57.24;93729.97;4222917;28;19920;-59
2023/03/10 08:24:46;;;;;;;;;;;;;;;13.64;57.22;93720.28;4219261;28;19920;-55
2023/03/10 08:26:48;;;;;;;;;;;;;;;13.70;56.85;93706.31;4216743;28;19971;-56
2023/03/10 08:28:50;;;;;;;;;;;;;;;13.76;56.99;93705.50;4207360;28;20388;-58
2023/03/10 08:30:51;;;;;;;;;;;;;;;13.85;56.45;93704.31;4219367;28;20306;-58
2023/03/10 08:33:07;;;;;;;;;;;;;;;13.92;56.52;93694.56;4223330;28;19926;-59
2023/03/10 08:35:08;;;;;;;;;;;;;;;14.00;56.09;93687.47;4221563;28;19953;-56
2023/03/10 08:37:10;;;;;;;;;;;;;;;13.93;56.41;93688.28;4219425;28;20452;-62
2023/03/10 08:39:11;;;;;;;;;;;;;;;13.95;56.19;93684.66;4214776;28;19924;-62
2023/03/10 08:41:23;;;;;;;;;;;;;;;14.05;56.29;93691.09;4222083;28;19920;-61
2023/03/10 08:43:25;;;;;;;;;;;;;;;14.22;56.10;93693.28;4226308;28;19993;-61
2023/03/10 08:45:26;;;;;;;;;;;;;;;14.34;55.99;93675.84;4214142;28;19920;-60
2023/03/10 08:47:28;;;;;;;;;;;;;;;14.28;55.85;93672.22;4228020;28;19920;-59
2023/03/10 08:49:32;;;;;;;;;;;;;;;14.38;55.47;93684.16;4229853;28;20662;-62
2023/03/10 08:51:34;;;;;;;;;;;;;;;14.52;55.16;93683.09;4224608;28;19919;-59
2023/03/10 08:53:36;;;;;;;;;;;;;;;14.67;54.91;93674.94;4227992;28;20433;-60
2023/03/10 08:55:37;;;;;;;;;;;;;;;14.84;54.48;93676.13;4229774;28;19931;-59
2023/03/10 08:57:39;;;;;;;;;;;;;;;14.93;54.36;93666.13;4226938;28;19973;-61
2023/03/10 08:59:40;;;;;;;;;;;;;;;14.95;54.24;93661.47;4213444;28;19920;-62
2023/03/10 09:01:42;;;;;;;;;;;;;;;14.98;54.02;93663.66;4226241;28;20270;-59
2023/03/10 09:03:44;;;;;;;;;;;;;;;15.06;53.60;93668.69;4227032;28;19976;-60
2023/03/10 09:05:45;;;;;;;;;;;;;;;15.10;53.40;93658.50;4217718;28;19959;-60
2023/03/10 09:07:47;;;;;;;;;;;;;;;15.18;52.95;93654.81;4228854;28;19923;-61
2023/03/10 09:09:48;;;;;;;;;;;;;;;15.25;52.78;93652.94;4218471;28;19951;-61
2023/03/10 09:11:50;;;;;;;;;;;;;;;14.96;53.29;93649.88;4226808;28;19981;-61
2023/03/10 09:13:51;;;;;;;;;;;;;;;14.82;53.57;93649.16;4215336;28;20404;-64
2023/03/10 09:15:53;;;;;;;;;;;;;;;14.77;53.96;93648.16;4214863;28;19946;-63
2023/03/10 09:17:54;;;;;;;;;;;;;;;14.70;53.94;93640.28;4198709;28;19921;-61
2023/03/10 09:19:56;;;;;;;;;;;;;;;14.74;54.04;93639.63;4196979;28;19971;-60
2023/03/10 09:21:58;;;;;;;;;;;;;;;14.84;53.92;93636.56;4208941;28;20443;-58
2023/03/10 09:24:00;;;;;;;;;;;;;;;14.85;53.53;93635.53;4214974;28;19966;-62
2023/03/10 09:26:01;;;;;;;;;;;;;;;14.90;53.33;93632.25;4211212;28;19943;-61
2023/03/10 09:28:03;;;;;;;;;;;;;;;14.91;53.75;93628.63;4198752;28;19942;-60
2023/03/10 09:30:05;;;;;;;;;;;;;;;14.93;53.80;93626.56;4197677;28;20380;-59
2023/03/10 09:32:07;;;;;;;;;;;;;;;14.89;53.82;93628.00;4197877;28;19970;-61
2023/03/10 09:34:10;;;;;;;;;;;;;;;14.91;53.87;93633.88;4202621;28;19920;-60
2023/03/10 09:36:12;;;;;;;;;;;;;;;14.96;53.77;93626.13;4204511;28;19975;-61
2023/03/10 09:38:14;;;;;;;;;;;;;;;15.01;53.60;93626.31;4198440;28;19920;-62
2023/03/10 09:40:19;;;;;;;;;;;;;;;15.04;53.38;93615.34;4215687;28;19924;-62
2023/03/10 09:42:34;;;;;;;;;;;;;;;14.99;53.52;93619.63;4231558;28;19942;-60
2023/03/10 09:44:48;;;;;;;;;;;;;;;15.02;53.58;93613.94;4212463;28;19920;-61
2023/03/10 09:46:53;;;;;;;;;;;;;;;15.07;53.35;93614.91;4183689;28;19967;-62
2023/03/10 09:48:54;;;;;;;;;;;;;;;15.14;53.18;93607.78;4221755;28;20330;-61
2023/03/10 09:50:58;;;;;;;;;;;;;;;15.02;53.28;93600.75;4229588;28;19919;-62
2023/03/10 09:53:08;;;;;;;;;;;;;;;14.90;53.36;93601.41;4198762;28;19920;-60
2023/03/10 09:55:29;;;;;;;;;;;;;;;14.80;53.81;93600.25;4231255;28;19998;-60
2023/03/10 09:57:30;;;;;;;;;;;;;;;14.80;53.86;93602.91;4231156;28;19919;-62
2023/03/10 09:59:38;;;;;;;;;;;;;;;14.81;53.71;93604.53;4230944;28;20433;-60
2023/03/10 10:01:43;;;;;;;;;;;;;;;14.77;54.04;93598.06;4212982;28;20629;-60
2023/03/10 10:03:48;;;;;;;;;;;;;;;14.71;54.11;93591.78;4230947;28;20270;-61
2023/03/10 10:05:54;;;;;;;;;;;;;;;14.73;54.25;93595.03;4210465;28;19924;-61
2023/03/10 10:07:56;;;;;;;;;;;;;;;14.72;54.18;93594.22;4207619;28;19995;-61
2023/03/10 10:10:01;;;;;;;;;;;;;;;14.72;54.09;93583.69;4214693;28;19924;-61
2023/03/10 10:12:08;;;;;;;;;;;;;;;14.56;54.31;93576.25;4205526;28;19920;-61
2023/03/10 10:14:12;;;;;;;;;;;;;;;14.33;54.89;93569.66;4227092;28;19926;-59
2023/03/10 10:16:57;;;;;;;;;;;;;;;14.39;55.14;93569.84;4227921;28;20356;-62
2023/03/10 10:19:02;;;;;;;;;;;;;;;14.50;54.94;93572.63;4217449;28;20278;-61
2023/03/10 10:21:15;;;;;;;;;;;;;;;14.43;55.28;93571.03;4191115;28;19928;-60
2023/03/10 10:23:24;;;;;;;;;;;;;;;14.29;55.57;93568.47;4180114;28;20375;-60
2023/03/10 10:25:29;;;;;;;;;;;;;;;14.25;55.79;93566.47;4204165;28;19970;-61
2023/03/10 10:27:31;;;;;;;;;;;;;;;14.31;55.98;93570.91;4208958;28;19928;-64
2023/03/10 10:29:36;;;;;;;;;;;;;;;14.38;55.59;93565.59;4220318;28;20018;-62
2023/03/10 10:31:38;;;;;;;;;;;;;;;14.39;55.53;93561.94;4230753;28;19935;-62
2023/03/10 10:33:50;;;;;;;;;;;;;;;14.40;55.78;93561.72;4211871;28;19920;-62
2023/03/10 10:36:01;;;;;;;;;;;;;;;14.50;55.57;93566.56;4223187;28;19951;-61
2023/03/10 10:38:02;;;;;;;;;;;;;;;14.59;55.42;93564.50;4224199;28;19969;-60
2023/03/10 10:40:20;;;;;;;;;;;;;;;14.66;55.40;93560.81;4229046;28;19926;-60